Time;durP1;ratioP1;P1;durP2;ratioP2;P2;SDS_P1;SDS_P2;PMS_P1;PMS_P2;Temp;Humidity;BMP_temperature;BMP_pressure;BME280_temperature;BME280_humidity;BME280_pressure;Samples;Min_cycle;Max_cycle;Signal;HPM_P1;HPM_P2
2021/12/16 00:03:01;;;;;;;38.05;10.80;;;8.00;99.90;;;;;;5078352;28;20170;-74
2021/12/16 00:08:03;;;;;;;55.63;11.77;;;8.10;99.90;;;;;;5094459;28;20067;-75
2021/12/16 00:10:37;;;;;;;56.45;10.63;;;8.10;99.90;;;;;;5070518;28;20081;-75
2021/12/16 00:30:03;;;;;;;33.22;10.05;;;8.10;99.90;;;;;;5076325;28;20055;-74
2021/12/16 00:32:42;;;;;;;28.95;9.57;;;8.20;99.90;;;;;;5075848;28;20109;-74
2021/12/16 00:35:07;;;;;;;35.92;10.50;;;8.10;99.90;;;;;;5090145;28;20074;-74
2021/12/16 00:37:33;;;;;;;33.35;10.70;;;8.10;99.90;;;;;;5077790;28;20480;-74
2021/12/16 00:39:59;;;;;;;56.47;11.70;;;8.10;99.90;;;;;;5096044;28;20510;-74
2021/12/16 00:45:09;;;;;;;33.80;9.70;;;8.10;99.90;;;;;;5079464;28;20029;-74
2021/12/16 00:47:54;;;;;;;29.42;9.68;;;8.10;99.90;;;;;;5058658;28;20076;-74
2021/12/16 00:54:09;;;;;;;34.47;9.68;;;8.00;99.90;;;;;;5083693;28;20020;-74
2021/12/16 00:55:56;;;;;;;32.33;8.93;;;8.10;99.90;;;;;;5075173;28;20078;-74
2021/12/16 00:58:49;;;;;;;38.17;10.75;;;8.10;99.90;;;;;;5061130;28;20025;-74
2021/12/16 01:34:11;;;;;;;21.30;8.38;;;7.80;99.90;;;;;;5090291;28;20145;-74
2021/12/16 01:37:06;;;;;;;25.85;8.35;;;7.80;99.90;;;;;;5060885;28;20028;-75
2021/12/16 01:40:02;;;;;;;31.08;8.90;;;7.60;99.90;;;;;;5085491;28;20384;-75
2021/12/16 01:47:49;;;;;;;25.35;8.60;;;7.60;99.90;;;;;;5094553;28;20066;-74
2021/12/16 01:50:22;;;;;;;24.93;7.63;;;7.50;99.90;;;;;;5076090;28;20469;-74
2021/12/16 01:55:39;;;;;;;29.73;7.32;;;7.50;99.90;;;;;;5075895;28;20115;-74
2021/12/16 01:58:22;;;;;;;18.48;7.22;;;7.50;99.90;;;;;;5075726;28;20028;-74
2021/12/16 02:01:12;;;;;;;19.40;6.40;;;7.60;99.90;;;;;;5090212;28;20012;-74
2021/12/16 02:03:45;;;;;;;36.53;7.22;;;7.60;99.90;;;;;;5064771;28;20030;-74
2021/12/16 02:08:52;;;;;;;22.00;6.88;;;7.50;99.90;;;;;;5079533;28;20558;-74
2021/12/16 02:33:24;;;;;;;17.20;5.63;;;7.40;99.90;;;;;;5055689;28;20032;-75
2021/12/16 02:36:15;;;;;;;21.48;6.80;;;7.30;99.90;;;;;;5092490;28;20031;-74
2021/12/16 02:38:43;;;;;;;16.60;6.10;;;7.20;99.90;;;;;;5081756;28;20024;-75
2021/12/16 02:41:10;;;;;;;13.75;5.63;;;7.10;99.90;;;;;;5073576;28;20028;-75
2021/12/16 02:43:52;;;;;;;16.63;6.10;;;7.10;99.90;;;;;;5075282;28;20019;-74
2021/12/16 02:49:02;;;;;;;15.00;5.82;;;7.00;99.90;;;;;;5074845;28;20585;-74
2021/12/16 02:51:32;;;;;;;16.75;6.65;;;6.90;99.90;;;;;;5073772;28;20119;-75
2021/12/16 02:54:02;;;;;;;15.15;5.72;;;6.80;99.90;;;;;;5078756;28;20134;-75
2021/12/16 02:56:28;;;;;;;18.42;5.90;;;6.80;99.90;;;;;;5075172;28;20108;-74
2021/12/16 02:58:56;;;;;;;16.40;6.63;;;6.70;99.90;;;;;;5090994;28;20026;-74
2021/12/16 03:01:29;;;;;;;14.53;5.87;;;6.70;99.90;;;;;;5073811;28;20100;-75
2021/12/16 03:03:56;;;;;;;18.65;6.20;;;6.60;99.90;;;;;;5060149;28;20020;-75
2021/12/16 03:06:23;;;;;;;18.48;5.38;;;6.60;99.90;;;;;;5093368;28;20554;-75
2021/12/16 03:08:51;;;;;;;14.05;5.13;;;6.60;99.90;;;;;;5062900;28;20055;-75
2021/12/16 03:11:35;;;;;;;15.73;4.97;;;6.50;99.90;;;;;;5055241;28;20032;-75
2021/12/16 03:16:40;;;;;;;38.88;5.53;;;6.40;99.90;;;;;;5074172;28;20056;-74
2021/12/16 03:21:44;;;;;;;50.10;6.05;;;6.40;99.90;;;;;;5073998;28;20024;-75
2021/12/16 03:35:33;;;;;;;25.58;6.28;;;6.60;99.90;;;;;;5087297;28;20043;-75
2021/12/16 03:38:03;;;;;;;87.97;7.43;;;6.60;99.90;;;;;;5087847;28;20508;-75
2021/12/16 03:40:31;;;;;;;104.30;6.50;;;6.60;99.90;;;;;;5064232;28;20369;-75
2021/12/16 03:43:11;;;;;;;50.88;6.85;;;6.60;99.90;;;;;;5093245;28;20024;-75
2021/12/16 03:48:50;;;;;;;43.03;6.63;;;6.70;99.90;;;;;;5092890;28;20039;-75
2021/12/16 03:51:20;;;;;;;27.50;6.22;;;6.70;99.90;;;;;;5092660;28;20081;-75
2021/12/16 03:53:49;;;;;;;45.95;5.95;;;6.70;99.90;;;;;;5072157;28;20024;-75
2021/12/16 03:56:16;;;;;;;22.60;5.75;;;6.80;99.90;;;;;;5054965;28;20035;-75
2021/12/16 03:58:42;;;;;;;73.65;6.82;;;6.80;99.90;;;;;;5082518;28;20023;-75
2021/12/16 04:01:13;;;;;;;109.45;7.53;;;6.80;99.90;;;;;;5095321;28;20028;-75
2021/12/16 04:03:39;;;;;;;56.00;6.43;;;6.80;99.90;;;;;;5085098;28;20162;-75
2021/12/16 04:06:07;;;;;;;23.70;6.85;;;6.80;99.90;;;;;;5089468;28;20036;-75
2021/12/16 04:08:33;;;;;;;41.97;6.63;;;6.80;99.90;;;;;;5086315;28;20508;-75
2021/12/16 04:11:23;;;;;;;42.65;6.15;;;6.70;99.90;;;;;;5058464;28;20267;-76
2021/12/16 04:13:59;;;;;;;34.40;5.65;;;6.70;99.90;;;;;;5083663;28;20035;-77
2021/12/16 04:16:29;;;;;;;56.10;5.65;;;6.70;99.90;;;;;;5096256;28;20034;-76
2021/12/16 04:18:57;;;;;;;44.20;5.30;;;6.70;99.90;;;;;;5077791;28;20387;-76
2021/12/16 04:21:25;;;;;;;42.83;5.43;;;6.70;99.90;;;;;;5096123;28;20020;-77
2021/12/16 04:23:52;;;;;;;63.85;6.10;;;6.70;99.90;;;;;;5095534;28;20542;-76
2021/12/16 04:26:18;;;;;;;29.85;4.85;;;6.70;99.90;;;;;;5096060;28;20027;-76
2021/12/16 04:28:44;;;;;;;46.20;5.75;;;6.60;99.90;;;;;;5095594;28;20031;-76
2021/12/16 04:31:11;;;;;;;28.60;5.10;;;6.60;99.90;;;;;;5086751;28;20026;-76
2021/12/16 04:33:39;;;;;;;68.28;5.72;;;6.60;99.90;;;;;;5091384;28;20472;-76
2021/12/16 04:36:08;;;;;;;113.45;6.50;;;6.50;99.90;;;;;;5092310;28;20065;-75
2021/12/16 04:38:35;;;;;;;35.80;4.82;;;6.50;99.90;;;;;;5078035;28;20560;-75
2021/12/16 04:41:00;;;;;;;41.13;5.20;;;6.40;99.90;;;;;;5077461;28;20020;-76
2021/12/16 04:43:33;;;;;;;20.27;5.47;;;6.40;99.90;;;;;;5074113;28;20598;-76
2021/12/16 04:45:59;;;;;;;116.70;7.25;;;6.30;99.90;;;;;;5076817;28;20031;-76
2021/12/16 04:48:25;;;;;;;20.35;4.90;;;6.30;99.90;;;;;;5095987;28;20024;-76
2021/12/16 04:50:51;;;;;;;21.20;4.40;;;6.20;99.90;;;;;;5093309;28;20039;-75
2021/12/16 04:53:17;;;;;;;19.02;4.03;;;6.20;99.90;;;;;;5062292;28;20472;-76
2021/12/16 04:55:43;;;;;;;14.52;4.15;;;6.20;99.90;;;;;;5073987;28;20119;-76
2021/12/16 04:58:08;;;;;;;14.80;4.28;;;6.10;99.90;;;;;;5095790;28;20030;-76
2021/12/16 05:00:34;;;;;;;12.55;4.03;;;6.20;99.90;;;;;;5076294;28;20077;-76
2021/12/16 05:03:00;;;;;;;82.97;6.05;;;6.10;99.90;;;;;;5076976;28;20024;-76
2021/12/16 05:05:25;;;;;;;28.80;4.25;;;6.10;99.90;;;;;;5089276;28;20491;-76
2021/12/16 05:07:51;;;;;;;23.40;5.30;;;6.10;99.90;;;;;;5095261;28;20118;-75
2021/12/16 05:10:18;;;;;;;18.02;3.78;;;6.00;99.90;;;;;;5095407;28;20032;-76
2021/12/16 05:12:56;;;;;;;28.52;4.53;;;6.00;99.90;;;;;;5076707;28;20024;-76
2021/12/16 05:15:30;;;;;;;46.75;5.00;;;6.00;99.90;;;;;;5062304;28;20035;-76
2021/12/16 05:18:02;;;;;;;13.82;4.38;;;6.00;99.90;;;;;;5089556;28;20021;-76
2021/12/16 05:20:35;;;;;;;15.70;3.85;;;5.90;99.90;;;;;;5056877;28;20035;-77
2021/12/16 05:28:18;;;;;;;93.72;5.00;;;5.80;99.90;;;;;;5095145;28;20032;-77
2021/12/16 05:30:43;;;;;;;13.77;3.75;;;5.70;99.90;;;;;;5093309;28;20541;-76
2021/12/16 05:33:09;;;;;;;8.68;3.60;;;5.70;99.90;;;;;;5080478;28;20109;-76
2021/12/16 05:35:36;;;;;;;14.88;3.72;;;5.60;99.90;;;;;;5071710;28;20512;-76
2021/12/16 05:38:03;;;;;;;13.63;4.70;;;5.60;99.90;;;;;;5075129;28;20023;-77
2021/12/16 05:40:29;;;;;;;10.82;3.35;;;5.60;99.90;;;;;;5066737;28;20067;-77
2021/12/16 05:43:04;;;;;;;12.88;3.95;;;5.50;99.90;;;;;;5093896;28;20035;-77
2021/12/16 05:45:30;;;;;;;20.17;4.05;;;5.50;99.90;;;;;;5089976;28;20118;-77
2021/12/16 05:47:58;;;;;;;9.30;3.70;;;5.50;99.90;;;;;;5062593;28;20052;-77
2021/12/16 05:50:25;;;;;;;15.35;4.00;;;5.50;99.90;;;;;;5074285;28;20042;-77
2021/12/16 05:52:51;;;;;;;16.77;4.28;;;5.40;99.90;;;;;;5093695;28;20504;-77
2021/12/16 05:55:19;;;;;;;13.80;4.03;;;5.40;99.90;;;;;;5094713;28;20024;-78
2021/12/16 05:57:45;;;;;;;16.98;3.85;;;5.30;99.90;;;;;;5094622;28;20017;-78
2021/12/16 06:00:19;;;;;;;16.60;3.53;;;5.30;99.90;;;;;;5088323;28;20025;-78
2021/12/16 06:02:45;;;;;;;19.55;3.88;;;5.30;99.90;;;;;;5082647;28;20522;-77
2021/12/16 06:05:11;;;;;;;36.10;4.32;;;5.30;99.90;;;;;;5088796;28;20024;-77
2021/12/16 06:07:37;;;;;;;19.23;3.33;;;5.30;99.90;;;;;;5058300;28;20028;-78
2021/12/16 06:10:05;;;;;;;32.20;4.10;;;5.20;99.90;;;;;;5056096;28;20100;-77
2021/12/16 06:12:30;;;;;;;15.90;3.40;;;5.20;99.90;;;;;;5060200;28;20115;-77
2021/12/16 06:15:22;;;;;;;27.20;4.18;;;5.20;99.90;;;;;;5088174;28;20103;-77
2021/12/16 06:28:27;;;;;;;30.08;3.50;;;5.10;99.90;;;;;;5094692;28;20078;-75
2021/12/16 06:30:54;;;;;;;26.85;3.58;;;5.00;99.90;;;;;;5092527;28;20052;-75
2021/12/16 06:33:25;;;;;;;15.13;3.20;;;5.00;99.90;;;;;;5080093;28;20028;-76
2021/12/16 06:35:53;;;;;;;13.30;2.47;;;5.00;99.90;;;;;;5092214;28;20028;-75
2021/12/16 06:38:20;;;;;;;21.35;3.20;;;4.90;99.90;;;;;;5093897;28;20488;-75
2021/12/16 06:40:46;;;;;;;9.65;3.03;;;4.90;99.90;;;;;;5075314;28;20017;-75
2021/12/16 06:43:13;;;;;;;12.32;3.25;;;4.90;99.90;;;;;;5092528;28;20020;-76
2021/12/16 06:45:43;;;;;;;15.43;3.40;;;4.90;99.90;;;;;;5059465;28;20025;-76
2021/12/16 06:48:14;;;;;;;30.80;3.92;;;4.90;99.90;;;;;;5091433;28;20024;-75
2021/12/16 06:50:57;;;;;;;42.00;3.67;;;4.90;99.90;;;;;;5093386;28;20113;-75
2021/12/16 06:53:43;;;;;;;19.33;3.55;;;4.90;99.90;;;;;;5085515;28;20028;-75
2021/12/16 06:56:26;;;;;;;30.30;3.45;;;4.90;99.90;;;;;;5055320;28;20373;-75
2021/12/16 07:01:39;;;;;;;32.38;3.85;;;4.80;99.90;;;;;;5073976;28;20025;-75
2021/12/16 07:04:10;;;;;;;22.52;3.90;;;4.90;99.90;;;;;;5074480;28;20411;-75
2021/12/16 07:06:38;;;;;;;16.13;4.18;;;4.90;99.90;;;;;;5073974;28;20025;-75
2021/12/16 07:09:15;;;;;;;21.95;3.85;;;4.80;99.90;;;;;;5074102;28;20024;-75
2021/12/16 07:11:42;;;;;;;18.40;4.18;;;4.80;99.90;;;;;;5074155;28;20492;-74
2021/12/16 07:14:15;;;;;;;9.70;3.30;;;4.80;99.90;;;;;;5089546;28;20056;-75
2021/12/16 07:16:46;;;;;;;21.83;3.90;;;4.80;99.90;;;;;;5094771;28;20020;-75
2021/12/16 07:19:12;;;;;;;17.42;4.18;;;4.90;99.90;;;;;;5093396;28;20020;-75
2021/12/16 07:21:38;;;;;;;12.40;3.78;;;4.90;99.90;;;;;;5093749;28;20099;-75
2021/12/16 07:24:06;;;;;;;9.65;3.13;;;4.80;99.90;;;;;;5093626;28;20041;-75
2021/12/16 07:26:32;;;;;;;11.47;3.47;;;4.80;99.90;;;;;;5093564;28;20110;-75
2021/12/16 07:28:58;;;;;;;11.63;4.15;;;4.80;99.90;;;;;;5093668;28;20504;-75
2021/12/16 07:31:23;;;;;;;9.68;3.58;;;4.80;99.90;;;;;;5093420;28;20384;-75
2021/12/16 07:33:49;;;;;;;9.90;3.58;;;4.80;99.90;;;;;;5093715;28;20027;-75
2021/12/16 07:36:18;;;;;;;11.50;3.67;;;4.70;99.90;;;;;;5097461;28;20481;-75
2021/12/16 07:38:45;;;;;;;10.13;3.45;;;4.70;99.90;;;;;;5079030;28;20365;-74
2021/12/16 07:41:11;;;;;;;14.77;4.75;;;4.70;99.90;;;;;;5096606;28;20028;-75
2021/12/16 07:43:56;;;;;;;10.82;3.55;;;4.60;99.90;;;;;;5078234;28;20031;-75
2021/12/16 07:46:24;;;;;;;12.25;3.95;;;4.60;99.90;;;;;;5078503;28;20023;-75
2021/12/16 07:48:49;;;;;;;7.55;3.13;;;4.50;99.90;;;;;;5078680;28;20374;-75
2021/12/16 07:51:15;;;;;;;10.15;3.30;;;4.50;99.90;;;;;;5096632;28;20043;-74
2021/12/16 07:53:41;;;;;;;9.80;3.65;;;4.50;99.90;;;;;;5096636;28;20028;-74
2021/12/16 07:56:08;;;;;;;11.35;3.13;;;4.40;99.90;;;;;;5096131;28;20038;-74
2021/12/16 07:58:34;;;;;;;10.90;2.83;;;4.40;99.90;;;;;;5096915;28;20070;-74
2021/12/16 08:01:00;;;;;;;9.90;3.85;;;4.40;99.90;;;;;;5096464;28;20028;-74
2021/12/16 08:03:33;;;;;;;9.82;3.72;;;4.40;99.90;;;;;;5096270;28;20027;-74
2021/12/16 08:06:00;;;;;;;7.88;3.40;;;4.30;99.90;;;;;;5078273;28;20032;-74
2021/12/16 08:08:29;;;;;;;8.73;3.67;;;4.40;99.90;;;;;;5096367;28;20020;-74
2021/12/16 08:10:55;;;;;;;8.85;3.00;;;4.40;99.90;;;;;;5096247;28;20054;-74
2021/12/16 08:13:21;;;;;;;6.82;2.53;;;4.40;99.90;;;;;;5096807;28;20020;-75
2021/12/16 08:15:49;;;;;;;7.15;3.40;;;4.40;99.90;;;;;;5096203;28;20035;-75
2021/12/16 08:18:15;;;;;;;6.93;3.10;;;4.50;99.90;;;;;;5096253;28;20536;-74
2021/12/16 08:20:42;;;;;;;6.00;2.72;;;4.50;99.90;;;;;;5096115;28;20016;-75
2021/12/16 08:23:08;;;;;;;8.52;2.70;;;4.50;99.90;;;;;;5078088;28;20393;-75
2021/12/16 08:25:35;;;;;;;8.25;3.60;;;4.50;99.90;;;;;;5096043;28;20020;-75
2021/12/16 08:28:03;;;;;;;7.25;2.85;;;4.50;99.90;;;;;;5096042;28;20133;-74
2021/12/16 08:30:32;;;;;;;5.35;2.70;;;4.60;99.90;;;;;;5095897;28;20047;-74
2021/12/16 08:32:59;;;;;;;9.40;2.80;;;4.60;99.90;;;;;;5095843;28;20027;-75
2021/12/16 08:35:25;;;;;;;9.02;3.30;;;4.60;99.90;;;;;;5095747;28;20027;-75
2021/12/16 08:37:51;;;;;;;6.53;2.88;;;4.70;99.90;;;;;;5095342;28;20528;-74
2021/12/16 08:40:20;;;;;;;6.43;2.70;;;4.70;99.90;;;;;;5095729;28;20024;-75
2021/12/16 08:42:46;;;;;;;9.18;3.72;;;4.70;99.90;;;;;;5095913;28;20020;-75
2021/12/16 08:45:16;;;;;;;7.97;2.70;;;4.80;99.90;;;;;;5077103;28;20074;-75
2021/12/16 08:47:42;;;;;;;6.47;2.90;;;4.80;99.90;;;;;;5095509;28;20027;-75
2021/12/16 08:50:11;;;;;;;6.70;2.47;;;4.80;99.90;;;;;;5094982;28;20628;-74
2021/12/16 08:52:37;;;;;;;6.05;2.70;;;4.90;99.90;;;;;;5095387;28;20023;-74
2021/12/16 08:55:04;;;;;;;7.75;3.20;;;5.00;99.90;;;;;;5095585;28;20031;-74
2021/12/16 08:57:30;;;;;;;6.60;2.92;;;5.00;99.90;;;;;;5095825;28;20035;-75
2021/12/16 08:59:55;;;;;;;6.25;2.80;;;5.10;99.90;;;;;;5095526;28;20024;-74
2021/12/16 09:02:22;;;;;;;7.45;3.03;;;5.20;99.90;;;;;;5095450;28;20031;-75
2021/12/16 09:04:49;;;;;;;7.50;3.83;;;5.30;99.90;;;;;;5077293;28;20024;-74
2021/12/16 09:07:16;;;;;;;7.05;3.72;;;5.30;99.90;;;;;;5077116;28;20020;-75
2021/12/16 09:09:43;;;;;;;6.78;3.33;;;5.40;99.90;;;;;;5077096;28;20024;-75
2021/12/16 09:14:56;;;;;;;8.68;3.17;;;5.50;99.90;;;;;;5095038;28;20396;-75
2021/12/16 09:17:22;;;;;;;8.73;4.03;;;5.60;99.90;;;;;;5076832;28;20042;-75
2021/12/16 09:19:51;;;;;;;9.68;3.80;;;5.70;99.90;;;;;;5094897;28;20020;-75
2021/12/16 09:22:17;;;;;;;;;;;5.80;99.90;;;;;;5077135;28;20024;-75
2021/12/16 09:24:45;;;;;;;4.82;2.97;;;5.90;99.90;;;;;;5094447;28;19991;-75
2021/12/16 09:27:11;;;;;;;6.10;3.30;;;5.90;99.90;;;;;;5095472;28;20107;-75
2021/12/16 09:29:37;;;;;;;9.52;4.38;;;6.00;99.90;;;;;;5095339;28;20055;-75
2021/12/16 09:32:04;;;;;;;11.23;3.63;;;6.10;99.90;;;;;;5077260;28;20081;-75
2021/12/16 09:34:31;;;;;;;6.18;3.20;;;6.20;99.90;;;;;;5076590;28;20085;-75
2021/12/16 09:36:58;;;;;;;7.65;3.75;;;6.30;99.90;;;;;;5076824;28;20110;-75
2021/12/16 09:39:26;;;;;;;9.05;3.70;;;6.40;99.90;;;;;;5076920;28;20020;-75
2021/12/16 09:41:56;;;;;;;10.98;4.03;;;6.50;99.90;;;;;;5095268;28;20095;-75
2021/12/16 09:44:22;;;;;;;8.38;3.50;;;6.60;99.90;;;;;;5094859;28;20024;-75
2021/12/16 09:46:50;;;;;;;9.60;3.75;;;6.70;99.90;;;;;;5094840;28;20020;-75
2021/12/16 09:49:17;;;;;;;10.83;4.33;;;6.80;99.90;;;;;;5094459;28;20477;-75
2021/12/16 09:51:45;;;;;;;9.00;3.58;;;6.80;99.90;;;;;;5094523;28;20089;-75
2021/12/16 09:54:16;;;;;;;9.90;4.15;;;6.90;99.90;;;;;;5094550;28;20496;-75
2021/12/16 09:56:44;;;;;;;8.05;4.03;;;7.00;99.90;;;;;;5093471;28;20024;-75
2021/12/16 09:59:13;;;;;;;12.38;4.85;;;7.10;99.90;;;;;;5075846;28;20073;-75
2021/12/16 10:01:41;;;;;;;12.25;4.43;;;7.20;99.90;;;;;;5075804;28;20020;-75
2021/12/16 10:04:09;;;;;;;7.50;4.10;;;7.30;99.90;;;;;;5076340;28;20043;-75
2021/12/16 10:06:39;;;;;;;10.43;4.20;;;7.40;99.90;;;;;;5094527;28;20030;-76
2021/12/16 10:09:07;;;;;;;10.60;4.10;;;7.40;99.90;;;;;;5094036;28;20035;-75
2021/12/16 10:11:36;;;;;;;9.20;4.30;;;7.60;99.90;;;;;;5094011;28;20044;-75
2021/12/16 10:14:16;;;;;;;;;;;7.60;99.90;;;;;;5094318;28;20039;-75
2021/12/16 10:19:31;;;;;;;11.77;5.20;;;7.80;99.90;;;;;;5094748;28;20126;-75
2021/12/16 10:22:22;;;;;;;11.15;4.93;;;7.90;99.90;;;;;;5075759;28;20016;-75
2021/12/16 10:24:49;;;;;;;12.20;5.07;;;8.00;99.90;;;;;;5075552;28;20059;-75
2021/12/16 10:27:17;;;;;;;11.07;5.07;;;8.10;99.90;;;;;;5075522;28;20437;-75
2021/12/16 10:29:51;;;;;;;8.45;4.32;;;8.20;99.90;;;;;;5094310;28;20016;-75
2021/12/16 10:32:36;;;;;;;10.15;4.57;;;8.30;99.90;;;;;;5094677;28;20500;-75
2021/12/16 10:35:15;;;;;;;12.43;4.85;;;8.40;99.90;;;;;;5093537;28;20439;-75
2021/12/16 10:37:45;;;;;;;11.93;4.72;;;8.50;99.90;;;;;;5094204;28;20119;-75
2021/12/16 10:40:29;;;;;;;11.32;5.10;;;8.60;99.90;;;;;;5075690;28;20480;-75
2021/12/16 10:42:56;;;;;;;12.77;5.07;;;8.70;99.90;;;;;;5093837;28;20020;-75
2021/12/16 10:45:47;;;;;;;12.82;5.47;;;8.80;99.90;;;;;;5093389;28;20024;-75
2021/12/16 10:48:19;;;;;;;13.65;5.55;;;8.90;99.90;;;;;;5094027;28;20031;-75
2021/12/16 10:51:03;;;;;;;12.27;5.07;;;9.00;99.90;;;;;;5093542;28;20055;-75
2021/12/16 10:54:05;;;;;;;11.90;5.00;;;9.10;99.90;;;;;;5093430;28;20073;-75
2021/12/16 10:57:04;;;;;;;18.00;6.15;;;9.20;99.90;;;;;;5076321;28;20465;-75
2021/12/16 10:59:39;;;;;;;9.05;4.40;;;9.30;99.90;;;;;;5080486;28;20111;-75
2021/12/16 11:02:14;;;;;;;19.08;6.03;;;9.50;99.90;;;;;;5055205;28;20020;-75
2021/12/16 11:04:45;;;;;;;21.25;6.45;;;9.60;99.90;;;;;;5055030;28;20024;-75
2021/12/16 11:07:19;;;;;;;14.55;5.35;;;9.70;99.90;;;;;;5073402;28;20067;-75
2021/12/16 11:09:59;;;;;;;21.10;6.68;;;9.80;99.90;;;;;;5076754;28;20424;-75
2021/12/16 11:12:53;;;;;;;17.58;5.70;;;9.90;99.90;;;;;;5077433;28;20086;-75
2021/12/16 11:15:41;;;;;;;16.10;5.75;;;10.00;99.90;;;;;;5072773;28;20040;-78
2021/12/16 11:18:20;;;;;;;14.90;6.28;;;10.10;99.90;;;;;;5067697;28;20067;-78
2021/12/16 11:20:52;;;;;;;12.55;5.40;;;10.20;99.90;;;;;;5098224;28;20385;-78
2021/12/16 11:23:32;;;;;;;12.88;5.25;;;10.20;99.90;;;;;;5089554;28;20042;-77
2021/12/16 11:26:01;;;;;;;15.48;5.60;;;10.30;99.90;;;;;;5059443;28;20116;-77
2021/12/16 11:28:35;;;;;;;14.20;5.68;;;10.40;99.90;;;;;;5065141;28;20070;-78
2021/12/16 11:31:09;;;;;;;12.90;5.35;;;10.40;99.90;;;;;;5079861;28;20026;-78
2021/12/16 11:33:44;;;;;;;15.40;5.20;;;10.50;99.90;;;;;;5098402;28;20070;-79
2021/12/16 11:36:18;;;;;;;21.70;6.10;;;10.60;99.90;;;;;;5058923;28;20392;-79
2021/12/16 11:38:52;;;;;;;12.65;6.13;;;10.60;99.90;;;;;;5063114;28;20489;-79
2021/12/16 11:41:25;;;;;;;17.92;5.78;;;10.70;99.90;;;;;;5058290;28;20035;-79
2021/12/16 11:44:11;;;;;;;17.45;5.45;;;10.80;99.90;;;;;;5077553;28;20425;-79
2021/12/16 11:46:42;;;;;;;16.52;5.55;;;10.80;99.90;;;;;;5088517;28;20052;-79
2021/12/16 11:49:24;;;;;;;10.65;5.43;;;10.80;99.90;;;;;;5076773;28;20199;-79
2021/12/16 11:52:01;;;;;;;12.73;5.20;;;10.90;99.90;;;;;;5077055;28;20448;-78
2021/12/16 11:54:32;;;;;;;14.55;6.35;;;10.90;99.90;;;;;;5077177;28;20086;-79
2021/12/16 11:57:06;;;;;;;20.08;5.93;;;10.90;99.90;;;;;;5086086;28;20505;-79
2021/12/16 11:59:38;;;;;;;18.27;5.68;;;10.90;99.90;;;;;;5095866;28;20036;-79
2021/12/16 12:02:05;;;;;;;17.40;7.03;;;11.00;99.90;;;;;;5060248;28;20021;-79
2021/12/16 12:04:35;;;;;;;12.65;5.45;;;11.10;99.90;;;;;;5076006;28;20107;-80
2021/12/16 12:07:13;;;;;;;16.63;5.68;;;11.60;99.90;;;;;;5098062;28;20081;-79
2021/12/16 12:09:46;;;;;;;14.88;5.95;;;11.30;99.90;;;;;;5079686;28;20035;-80
2021/12/16 12:12:13;;;;;;;15.07;5.82;;;11.50;99.90;;;;;;5097934;28;20128;-79
2021/12/16 12:14:41;;;;;;;12.23;4.68;;;11.50;99.90;;;;;;5084632;28;20060;-79
2021/12/16 12:17:19;;;;;;;16.10;5.50;;;11.60;99.90;;;;;;5079569;28;20057;-79
2021/12/16 12:19:51;;;;;;;17.77;6.47;;;11.70;99.90;;;;;;5097284;28;20025;-76
2021/12/16 12:22:25;;;;;;;14.98;5.43;;;11.80;99.90;;;;;;5096117;28;20027;-76
2021/12/16 12:24:52;;;;;;;17.25;5.47;;;11.80;99.90;;;;;;5077644;28;20020;-76
2021/12/16 12:27:22;;;;;;;13.00;5.85;;;11.80;99.90;;;;;;5095794;28;20030;-76
2021/12/16 12:29:50;;;;;;;14.77;5.80;;;11.90;99.90;;;;;;5095842;28;20028;-76
2021/12/16 12:32:31;;;;;;;15.63;5.25;;;11.90;99.90;;;;;;5077619;28;20028;-76
2021/12/16 12:35:07;;;;;;;17.92;6.03;;;11.80;99.90;;;;;;5095641;28;20031;-76
2021/12/16 12:37:34;;;;;;;17.23;4.15;;;11.90;99.90;;;;;;5077584;28;20024;-76
2021/12/16 12:40:10;;;;;;;19.52;5.55;;;11.90;99.90;;;;;;5095632;28;20491;-76
2021/12/16 12:42:36;;;;;;;14.32;4.95;;;12.00;99.90;;;;;;5095764;28;20458;-76
2021/12/16 12:45:08;;;;;;;15.10;6.20;;;12.10;99.90;;;;;;5096169;28;20016;-76
2021/12/16 12:47:36;;;;;;;12.45;4.28;;;12.10;99.90;;;;;;5095914;28;20047;-76
2021/12/16 12:50:25;;;;;;;20.17;6.57;;;12.20;99.90;;;;;;5096214;28;20028;-75
2021/12/16 12:52:53;;;;;;;13.77;4.75;;;12.40;99.90;;;;;;5069419;28;20036;-76
2021/12/16 12:55:32;;;;;;;8.57;4.15;;;12.50;99.90;;;;;;5096060;28;20024;-75
2021/12/16 12:58:22;;;;;;;8.68;4.10;;;12.50;99.90;;;;;;5077006;28;20031;-76
2021/12/16 13:00:53;;;;;;;12.52;4.35;;;12.50;99.90;;;;;;5095119;28;20091;-76
2021/12/16 13:03:25;;;;;;;11.50;4.32;;;12.50;99.90;;;;;;5076801;28;20452;-75
2021/12/16 13:06:03;;;;;;;11.18;4.35;;;12.60;99.90;;;;;;5095629;28;20050;-76
2021/12/16 13:08:32;;;;;;;10.13;4.15;;;12.60;99.90;;;;;;5077277;28;20020;-75
2021/12/16 13:11:02;;;;;;;;;;;12.60;99.90;;;;;;5096258;28;20024;-76
2021/12/16 13:13:33;;;;;;;10.35;4.13;;;12.60;99.90;;;;;;5095573;28;19907;-75
2021/12/16 13:26:51;;;;;;;11.57;4.05;;;12.90;99.90;;;;;;5095597;28;20363;-76
2021/12/16 13:29:54;;;;;;;12.77;4.30;;;12.90;99.90;;;;;;5095348;28;20016;-76
2021/12/16 13:32:20;;;;;;;14.15;5.70;;;12.90;99.90;;;;;;5093720;28;20024;-76
2021/12/16 13:35:46;;;;;;;9.15;4.38;;;12.90;99.90;;;;;;5094939;28;20078;-76
2021/12/16 13:37:45;;;;;;;12.65;4.03;;;12.80;99.90;;;;;;5077320;28;20043;-75
2021/12/16 13:40:14;;;;;;;13.73;4.63;;;12.70;99.90;;;;;;5094793;28;20024;-76
2021/12/16 13:42:45;;;;;;;15.85;5.13;;;12.50;99.90;;;;;;5076887;28;20036;-75
2021/12/16 13:45:27;;;;;;;9.73;4.60;;;12.40;99.90;;;;;;5094275;28;20020;-75
2021/12/16 13:48:27;;;;;;;13.18;4.28;;;12.30;99.90;;;;;;5094332;28;20099;-76
2021/12/16 14:05:31;;;;;;;13.13;4.55;;;12.10;99.90;;;;;;5074255;28;20036;-75
2021/12/16 14:08:04;;;;;;;14.80;4.70;;;12.30;99.90;;;;;;5073433;28;20028;-75
2021/12/16 14:10:42;;;;;;;16.55;5.25;;;12.60;99.90;;;;;;5075863;28;20036;-75
2021/12/16 14:47:01;;;;;;;23.27;7.25;;;11.10;99.90;;;;;;5073098;28;20473;-74
2021/12/16 14:49:33;;;;;;;18.02;7.32;;;10.90;99.90;;;;;;5073244;28;20024;-74
2021/12/16 14:51:59;;;;;;;18.58;6.28;;;10.70;99.90;;;;;;5072978;28;20538;-74
2021/12/16 14:54:26;;;;;;;24.63;7.53;;;10.70;99.90;;;;;;5070932;28;20472;-74
2021/12/16 14:56:58;;;;;;;19.13;7.25;;;10.60;99.90;;;;;;5075053;28;20097;-74
2021/12/16 14:59:26;;;;;;;23.98;6.60;;;10.50;99.90;;;;;;5058184;28;20024;-74
2021/12/16 15:01:54;;;;;;;17.73;6.68;;;10.40;99.90;;;;;;5072815;28;20032;-74
2021/12/16 15:04:25;;;;;;;18.17;7.20;;;10.30;99.90;;;;;;5070811;28;20115;-74
2021/12/16 15:07:00;;;;;;;19.70;7.28;;;10.20;99.90;;;;;;5073262;28;20567;-74
2021/12/16 15:09:29;;;;;;;17.70;6.97;;;10.00;99.90;;;;;;5074906;28;20020;-74
2021/12/16 15:12:11;;;;;;;20.90;6.95;;;9.90;99.90;;;;;;5092909;28;20020;-74
2021/12/16 15:15:07;;;;;;;18.40;7.20;;;9.80;99.90;;;;;;5093856;28;20497;-74
2021/12/16 15:38:09;;;;;;;20.33;7.57;;;9.00;99.90;;;;;;5028200;28;20087;-74
2021/12/16 15:40:34;;;;;;;19.45;6.85;;;8.90;99.90;;;;;;5072090;28;20771;-74
2021/12/16 15:43:03;;;;;;;20.27;6.68;;;8.90;99.90;;;;;;5072619;28;20074;-74
2021/12/16 15:45:31;;;;;;;20.40;6.82;;;8.80;99.90;;;;;;5081467;28;20032;-74
2021/12/16 15:47:59;;;;;;;15.30;6.22;;;8.70;99.90;;;;;;5063349;28;20025;-74
2021/12/16 15:50:32;;;;;;;18.08;6.90;;;8.60;99.90;;;;;;5072020;28;20078;-74
2021/12/16 15:52:59;;;;;;;24.13;6.95;;;8.50;99.90;;;;;;5072422;28;20029;-74
2021/12/16 15:55:36;;;;;;;15.73;5.90;;;8.40;99.90;;;;;;5073455;28;20028;-74
2021/12/16 15:58:23;;;;;;;13.88;5.60;;;8.30;99.90;;;;;;5076331;28;20017;-74
2021/12/16 16:00:54;;;;;;;22.60;7.18;;;8.30;99.90;;;;;;5083252;28;20027;-74
2021/12/16 16:03:21;;;;;;;19.05;7.57;;;8.20;99.90;;;;;;5096449;28;20428;-74
2021/12/16 16:05:52;;;;;;;25.00;6.35;;;8.20;99.90;;;;;;5078183;28;20020;-74
2021/12/16 16:08:21;;;;;;;21.60;7.25;;;8.10;99.90;;;;;;5070153;28;20101;-74
2021/12/16 16:10:50;;;;;;;19.10;7.20;;;8.10;99.90;;;;;;5075689;28;20025;-74
2021/12/16 16:13:23;;;;;;;18.60;6.57;;;8.00;99.90;;;;;;5057890;28;20144;-74
2021/12/16 16:15:52;;;;;;;15.93;6.80;;;8.00;99.90;;;;;;5075962;28;20036;-74
2021/12/16 16:20:53;;;;;;;17.60;7.00;;;7.90;99.90;;;;;;5076221;28;20025;-73
2021/12/16 16:23:19;;;;;;;15.23;5.78;;;7.90;99.90;;;;;;5083854;28;20375;-73
2021/12/16 16:25:46;;;;;;;17.52;7.35;;;7.80;99.90;;;;;;5077942;28;20154;-73
2021/12/16 16:28:14;;;;;;;19.40;6.45;;;7.80;99.90;;;;;;5089561;28;20025;-73
2021/12/16 16:30:44;;;;;;;16.58;6.65;;;7.70;99.90;;;;;;5076271;28;20047;-73
2021/12/16 16:33:17;;;;;;;12.90;5.55;;;7.70;99.90;;;;;;5066050;28;20035;-73
2021/12/16 16:36:01;;;;;;;18.80;7.07;;;7.60;99.90;;;;;;5057784;28;20082;-73
2021/12/16 16:38:53;;;;;;;24.45;7.85;;;7.60;99.90;;;;;;5090119;28;20027;-73
2021/12/16 16:41:24;;;;;;;19.80;6.88;;;7.50;99.90;;;;;;5096105;28;20420;-71
2021/12/16 16:44:07;;;;;;;26.02;9.77;;;7.50;99.90;;;;;;5077686;28;20024;-72
2021/12/16 16:46:44;;;;;;;22.10;8.38;;;7.50;99.90;;;;;;5086721;28;20017;-72
2021/12/16 16:49:24;;;;;;;19.75;7.85;;;7.50;99.90;;;;;;5091805;28;20468;-73
2021/12/16 16:51:50;;;;;;;24.50;8.52;;;7.40;99.90;;;;;;5090775;28;20434;-73